sensor_id;sensor_type;location;lat;lon;timestamp;P1;durP1;ratioP1;P2;durP2;ratioP2
55641;SDS011;41509;53.108;6.100;2022-12-07T00:01:23;3.10;;;1.00;;
55641;SDS011;41509;53.108;6.100;2022-12-07T00:03:51;3.85;;;0.68;;
55641;SDS011;41509;53.108;6.100;2022-12-07T00:06:18;1.63;;;0.68;;
55641;SDS011;41509;53.108;6.100;2022-12-07T00:08:44;2.90;;;0.75;;
55641;SDS011;41509;53.108;6.100;2022-12-07T00:11:12;1.92;;;0.65;;
55641;SDS011;41509;53.108;6.100;2022-12-07T00:13:39;1.77;;;0.55;;
55641;SDS011;41509;53.108;6.100;2022-12-07T00:18:36;4.43;;;0.68;;
55641;SDS011;41509;53.108;6.100;2022-12-07T00:21:03;2.67;;;0.60;;
55641;SDS011;41509;53.108;6.100;2022-12-07T00:23:34;4.95;;;0.50;;
55641;SDS011;41509;53.108;6.100;2022-12-07T00:26:08;5.82;;;0.35;;
55641;SDS011;41509;53.108;6.100;2022-12-07T00:28:36;2.47;;;0.43;;
55641;SDS011;41509;53.108;6.100;2022-12-07T00:31:09;1.85;;;0.40;;
55641;SDS011;41509;53.108;6.100;2022-12-07T00:33:37;1.67;;;0.30;;
55641;SDS011;41509;53.108;6.100;2022-12-07T00:36:04;2.38;;;0.20;;
55641;SDS011;41509;53.108;6.100;2022-12-07T00:38:33;7.97;;;0.70;;
55641;SDS011;41509;53.108;6.100;2022-12-07T00:41:01;6.18;;;0.65;;
55641;SDS011;41509;53.108;6.100;2022-12-07T00:43:28;3.10;;;0.60;;
55641;SDS011;41509;53.108;6.100;2022-12-07T00:45:54;1.58;;;0.20;;
55641;SDS011;41509;53.108;6.100;2022-12-07T00:48:21;2.72;;;0.38;;
55641;SDS011;41509;53.108;6.100;2022-12-07T00:50:47;5.03;;;0.30;;
55641;SDS011;41509;53.108;6.100;2022-12-07T00:53:13;1.45;;;0.38;;
55641;SDS011;41509;53.108;6.100;2022-12-07T00:55:39;1.88;;;0.52;;
55641;SDS011;41509;53.108;6.100;2022-12-07T00:58:05;1.53;;;0.57;;
55641;SDS011;41509;53.108;6.100;2022-12-07T01:00:31;3.65;;;0.65;;
55641;SDS011;41509;53.108;6.100;2022-12-07T01:02:59;3.70;;;0.68;;
55641;SDS011;41509;53.108;6.100;2022-12-07T01:05:25;2.20;;;0.77;;
55641;SDS011;41509;53.108;6.100;2022-12-07T01:07:51;3.10;;;0.50;;
55641;SDS011;41509;53.108;6.100;2022-12-07T01:10:16;4.83;;;1.00;;
55641;SDS011;41509;53.108;6.100;2022-12-07T01:12:42;1.63;;;0.23;;
55641;SDS011;41509;53.108;6.100;2022-12-07T01:15:08;0.97;;;0.30;;
55641;SDS011;41509;53.108;6.100;2022-12-07T01:17:34;5.57;;;0.35;;
55641;SDS011;41509;53.108;6.100;2022-12-07T01:20:00;5.20;;;1.00;;
55641;SDS011;41509;53.108;6.100;2022-12-07T01:22:26;5.85;;;0.50;;
55641;SDS011;41509;53.108;6.100;2022-12-07T01:24:52;1.90;;;0.50;;
55641;SDS011;41509;53.108;6.100;2022-12-07T01:29:44;4.38;;;0.25;;
55641;SDS011;41509;53.108;6.100;2022-12-07T01:32:10;4.27;;;0.60;;
55641;SDS011;41509;53.108;6.100;2022-12-07T01:34:35;3.33;;;0.25;;
55641;SDS011;41509;53.108;6.100;2022-12-07T01:37:01;3.10;;;1.23;;
55641;SDS011;41509;53.108;6.100;2022-12-07T01:39:27;2.57;;;0.70;;
55641;SDS011;41509;53.108;6.100;2022-12-07T01:41:53;2.30;;;0.67;;
55641;SDS011;41509;53.108;6.100;2022-12-07T01:44:25;6.82;;;0.73;;
55641;SDS011;41509;53.108;6.100;2022-12-07T01:46:58;5.43;;;0.60;;
55641;SDS011;41509;53.108;6.100;2022-12-07T01:54:44;2.05;;;0.68;;
55641;SDS011;41509;53.108;6.100;2022-12-07T01:57:11;4.43;;;0.43;;
55641;SDS011;41509;53.108;6.100;2022-12-07T01:59:38;4.85;;;0.55;;
55641;SDS011;41509;53.108;6.100;2022-12-07T02:02:07;3.67;;;0.50;;
55641;SDS011;41509;53.108;6.100;2022-12-07T02:04:37;4.03;;;0.47;;
55641;SDS011;41509;53.108;6.100;2022-12-07T02:07:03;3.50;;;0.23;;
55641;SDS011;41509;53.108;6.100;2022-12-07T02:09:30;1.90;;;0.30;;
55641;SDS011;41509;53.108;6.100;2022-12-07T02:11:55;1.30;;;0.30;;
55641;SDS011;41509;53.108;6.100;2022-12-07T02:14:21;1.33;;;0.20;;
55641;SDS011;41509;53.108;6.100;2022-12-07T02:16:51;2.70;;;0.23;;
55641;SDS011;41509;53.108;6.100;2022-12-07T02:19:33;4.15;;;0.40;;
55641;SDS011;41509;53.108;6.100;2022-12-07T02:27:50;2.03;;;0.38;;
55641;SDS011;41509;53.108;6.100;2022-12-07T02:30:49;3.67;;;0.45;;
55641;SDS011;41509;53.108;6.100;2022-12-07T02:33:19;4.43;;;0.45;;
55641;SDS011;41509;53.108;6.100;2022-12-07T02:36:30;2.15;;;0.45;;
55641;SDS011;41509;53.108;6.100;2022-12-07T02:38:58;3.97;;;0.88;;
55641;SDS011;41509;53.108;6.100;2022-12-07T02:44:09;4.28;;;0.93;;
55641;SDS011;41509;53.108;6.100;2022-12-07T02:46:40;2.53;;;0.32;;
55641;SDS011;41509;53.108;6.100;2022-12-07T02:49:14;5.70;;;0.60;;
55641;SDS011;41509;53.108;6.100;2022-12-07T02:51:59;2.97;;;0.75;;
55641;SDS011;41509;53.108;6.100;2022-12-07T02:54:25;2.63;;;0.47;;
55641;SDS011;41509;53.108;6.100;2022-12-07T02:57:00;5.47;;;0.65;;
55641;SDS011;41509;53.108;6.100;2022-12-07T03:10:17;4.33;;;0.60;;
55641;SDS011;41509;53.108;6.100;2022-12-07T03:18:24;2.30;;;0.47;;
55641;SDS011;41509;53.108;6.100;2022-12-07T03:20:53;4.03;;;0.52;;
55641;SDS011;41509;53.108;6.100;2022-12-07T03:23:24;3.17;;;0.60;;
55641;SDS011;41509;53.108;6.100;2022-12-07T03:25:52;2.47;;;0.57;;
55641;SDS011;41509;53.108;6.100;2022-12-07T03:28:22;3.38;;;0.73;;
55641;SDS011;41509;53.108;6.100;2022-12-07T03:30:52;6.88;;;1.20;;
55641;SDS011;41509;53.108;6.100;2022-12-07T03:33:27;1.75;;;0.30;;
55641;SDS011;41509;53.108;6.100;2022-12-07T03:36:02;1.92;;;0.68;;
55641;SDS011;41509;53.108;6.100;2022-12-07T03:41:22;3.83;;;0.40;;
55641;SDS011;41509;53.108;6.100;2022-12-07T03:43:51;7.00;;;0.68;;
55641;SDS011;41509;53.108;6.100;2022-12-07T03:46:21;3.58;;;0.57;;
55641;SDS011;41509;53.108;6.100;2022-12-07T03:48:59;2.85;;;0.82;;
55641;SDS011;41509;53.108;6.100;2022-12-07T03:51:52;2.25;;;0.50;;
55641;SDS011;41509;53.108;6.100;2022-12-07T03:54:40;3.85;;;0.52;;
55641;SDS011;41509;53.108;6.100;2022-12-07T03:57:11;3.47;;;0.63;;
55641;SDS011;41509;53.108;6.100;2022-12-07T03:59:38;1.58;;;0.28;;
55641;SDS011;41509;53.108;6.100;2022-12-07T04:02:05;4.90;;;0.57;;
55641;SDS011;41509;53.108;6.100;2022-12-07T04:04:32;4.57;;;0.52;;
55641;SDS011;41509;53.108;6.100;2022-12-07T04:06:59;2.22;;;0.38;;
55641;SDS011;41509;53.108;6.100;2022-12-07T04:09:25;3.67;;;0.40;;
55641;SDS011;41509;53.108;6.100;2022-12-07T04:11:50;4.00;;;0.50;;
55641;SDS011;41509;53.108;6.100;2022-12-07T04:14:16;2.43;;;0.90;;
55641;SDS011;41509;53.108;6.100;2022-12-07T04:16:45;6.03;;;0.52;;
55641;SDS011;41509;53.108;6.100;2022-12-07T04:19:11;5.60;;;1.08;;
55641;SDS011;41509;53.108;6.100;2022-12-07T04:21:37;1.95;;;0.40;;
55641;SDS011;41509;53.108;6.100;2022-12-07T04:24:03;5.37;;;1.07;;
55641;SDS011;41509;53.108;6.100;2022-12-07T04:26:29;2.97;;;0.68;;
55641;SDS011;41509;53.108;6.100;2022-12-07T04:28:55;2.90;;;0.60;;
55641;SDS011;41509;53.108;6.100;2022-12-07T04:31:20;1.67;;;0.27;;
55641;SDS011;41509;53.108;6.100;2022-12-07T04:33:46;3.57;;;0.40;;
55641;SDS011;41509;53.108;6.100;2022-12-07T04:36:12;4.27;;;0.40;;
55641;SDS011;41509;53.108;6.100;2022-12-07T04:38:37;6.10;;;0.50;;
55641;SDS011;41509;53.108;6.100;2022-12-07T04:41:06;4.30;;;0.70;;
55641;SDS011;41509;53.108;6.100;2022-12-07T04:43:33;3.78;;;0.40;;
55641;SDS011;41509;53.108;6.100;2022-12-07T04:45:58;1.07;;;0.40;;
55641;SDS011;41509;53.108;6.100;2022-12-07T04:48:24;3.27;;;0.47;;
55641;SDS011;41509;53.108;6.100;2022-12-07T04:50:50;5.00;;;0.70;;
55641;SDS011;41509;53.108;6.100;2022-12-07T04:53:15;4.90;;;0.70;;
55641;SDS011;41509;53.108;6.100;2022-12-07T04:55:41;4.53;;;0.50;;
55641;SDS011;41509;53.108;6.100;2022-12-07T04:58:07;1.03;;;0.27;;
55641;SDS011;41509;53.108;6.100;2022-12-07T05:00:32;1.00;;;0.30;;
55641;SDS011;41509;53.108;6.100;2022-12-07T05:02:58;2.10;;;0.23;;
55641;SDS011;41509;53.108;6.100;2022-12-07T05:05:23;3.47;;;0.50;;
55641;SDS011;41509;53.108;6.100;2022-12-07T05:07:49;3.87;;;0.30;;
55641;SDS011;41509;53.108;6.100;2022-12-07T05:10:15;2.53;;;0.52;;
55641;SDS011;41509;53.108;6.100;2022-12-07T05:12:41;2.05;;;0.52;;
55641;SDS011;41509;53.108;6.100;2022-12-07T05:15:07;2.27;;;0.50;;
55641;SDS011;41509;53.108;6.100;2022-12-07T05:17:33;2.47;;;0.47;;
55641;SDS011;41509;53.108;6.100;2022-12-07T05:19:59;4.53;;;0.97;;
55641;SDS011;41509;53.108;6.100;2022-12-07T05:22:24;5.43;;;0.53;;
55641;SDS011;41509;53.108;6.100;2022-12-07T05:24:53;1.33;;;0.45;;
55641;SDS011;41509;53.108;6.100;2022-12-07T05:27:19;0.70;;;0.25;;
55641;SDS011;41509;53.108;6.100;2022-12-07T05:29:45;1.07;;;0.30;;
55641;SDS011;41509;53.108;6.100;2022-12-07T05:32:11;10.57;;;0.90;;
55641;SDS011;41509;53.108;6.100;2022-12-07T05:34:37;1.73;;;0.60;;
55641;SDS011;41509;53.108;6.100;2022-12-07T05:37:02;8.05;;;1.00;;
55641;SDS011;41509;53.108;6.100;2022-12-07T05:39:28;7.73;;;1.10;;
55641;SDS011;41509;53.108;6.100;2022-12-07T05:41:54;5.67;;;0.43;;
55641;SDS011;41509;53.108;6.100;2022-12-07T05:44:45;2.22;;;0.47;;
55641;SDS011;41509;53.108;6.100;2022-12-07T05:47:12;7.63;;;1.17;;
55641;SDS011;41509;53.108;6.100;2022-12-07T05:49:38;4.00;;;0.50;;
55641;SDS011;41509;53.108;6.100;2022-12-07T05:52:04;7.13;;;0.43;;
55641;SDS011;41509;53.108;6.100;2022-12-07T05:54:30;9.05;;;0.90;;
55641;SDS011;41509;53.108;6.100;2022-12-07T05:56:56;2.13;;;0.53;;
55641;SDS011;41509;53.108;6.100;2022-12-07T05:59:22;3.93;;;0.47;;
55641;SDS011;41509;53.108;6.100;2022-12-07T06:01:57;5.70;;;0.80;;
55641;SDS011;41509;53.108;6.100;2022-12-07T06:04:25;3.15;;;0.70;;
55641;SDS011;41509;53.108;6.100;2022-12-07T06:06:53;3.58;;;0.52;;
55641;SDS011;41509;53.108;6.100;2022-12-07T06:09:19;1.73;;;0.53;;
55641;SDS011;41509;53.108;6.100;2022-12-07T06:14:30;3.78;;;0.70;;
55641;SDS011;41509;53.108;6.100;2022-12-07T06:16:55;4.90;;;0.63;;
55641;SDS011;41509;53.108;6.100;2022-12-07T06:19:21;3.10;;;0.70;;
55641;SDS011;41509;53.108;6.100;2022-12-07T06:21:47;2.80;;;0.80;;
55641;SDS011;41509;53.108;6.100;2022-12-07T06:24:13;3.00;;;0.40;;
55641;SDS011;41509;53.108;6.100;2022-12-07T06:26:40;3.58;;;0.47;;
55641;SDS011;41509;53.108;6.100;2022-12-07T06:29:06;2.90;;;0.60;;
55641;SDS011;41509;53.108;6.100;2022-12-07T06:31:32;0.53;;;0.40;;
55641;SDS011;41509;53.108;6.100;2022-12-07T06:34:02;2.93;;;0.50;;
55641;SDS011;41509;53.108;6.100;2022-12-07T06:36:35;3.05;;;0.82;;
55641;SDS011;41509;53.108;6.100;2022-12-07T06:39:00;1.50;;;0.77;;
55641;SDS011;41509;53.108;6.100;2022-12-07T06:41:27;4.70;;;1.40;;
55641;SDS011;41509;53.108;6.100;2022-12-07T06:43:53;3.93;;;0.83;;
55641;SDS011;41509;53.108;6.100;2022-12-07T06:46:18;2.60;;;1.00;;
55641;SDS011;41509;53.108;6.100;2022-12-07T06:48:44;4.43;;;1.25;;
55641;SDS011;41509;53.108;6.100;2022-12-07T06:51:10;3.17;;;1.10;;
55641;SDS011;41509;53.108;6.100;2022-12-07T06:53:36;7.00;;;0.80;;
55641;SDS011;41509;53.108;6.100;2022-12-07T06:56:02;6.60;;;0.63;;
55641;SDS011;41509;53.108;6.100;2022-12-07T07:00:54;7.60;;;1.15;;
55641;SDS011;41509;53.108;6.100;2022-12-07T07:03:20;4.97;;;1.13;;
55641;SDS011;41509;53.108;6.100;2022-12-07T07:05:46;3.97;;;0.63;;
55641;SDS011;41509;53.108;6.100;2022-12-07T07:08:11;2.77;;;0.53;;
55641;SDS011;41509;53.108;6.100;2022-12-07T07:10:37;3.30;;;0.37;;
55641;SDS011;41509;53.108;6.100;2022-12-07T07:13:04;2.83;;;0.70;;
55641;SDS011;41509;53.108;6.100;2022-12-07T07:15:30;4.32;;;0.85;;
55641;SDS011;41509;53.108;6.100;2022-12-07T07:17:56;2.65;;;0.80;;
55641;SDS011;41509;53.108;6.100;2022-12-07T07:20:22;4.93;;;0.90;;
55641;SDS011;41509;53.108;6.100;2022-12-07T07:22:48;8.60;;;1.67;;
55641;SDS011;41509;53.108;6.100;2022-12-07T07:25:20;3.58;;;1.00;;
55641;SDS011;41509;53.108;6.100;2022-12-07T07:27:46;3.65;;;1.13;;
55641;SDS011;41509;53.108;6.100;2022-12-07T07:30:12;9.70;;;1.10;;
55641;SDS011;41509;53.108;6.100;2022-12-07T07:32:38;10.13;;;0.87;;
55641;SDS011;41509;53.108;6.100;2022-12-07T07:35:04;4.00;;;0.90;;
55641;SDS011;41509;53.108;6.100;2022-12-07T07:37:30;4.88;;;1.40;;
55641;SDS011;41509;53.108;6.100;2022-12-07T07:39:55;5.10;;;1.17;;
55641;SDS011;41509;53.108;6.100;2022-12-07T07:42:21;12.80;;;1.67;;
55641;SDS011;41509;53.108;6.100;2022-12-07T07:44:47;5.77;;;1.23;;
55641;SDS011;41509;53.108;6.100;2022-12-07T07:47:12;4.03;;;0.97;;
55641;SDS011;41509;53.108;6.100;2022-12-07T07:49:38;1.23;;;0.70;;
55641;SDS011;41509;53.108;6.100;2022-12-07T07:52:05;8.10;;;1.53;;
55641;SDS011;41509;53.108;6.100;2022-12-07T07:54:31;11.45;;;1.63;;
55641;SDS011;41509;53.108;6.100;2022-12-07T07:56:57;6.13;;;0.90;;
55641;SDS011;41509;53.108;6.100;2022-12-07T07:59:22;2.08;;;0.90;;
55641;SDS011;41509;53.108;6.100;2022-12-07T08:01:49;7.70;;;1.10;;
55641;SDS011;41509;53.108;6.100;2022-12-07T08:04:15;4.00;;;1.33;;
55641;SDS011;41509;53.108;6.100;2022-12-07T08:06:41;7.70;;;1.38;;
55641;SDS011;41509;53.108;6.100;2022-12-07T08:09:07;2.83;;;1.00;;
55641;SDS011;41509;53.108;6.100;2022-12-07T08:11:33;13.98;;;0.95;;
55641;SDS011;41509;53.108;6.100;2022-12-07T08:13:59;8.05;;;1.33;;
55641;SDS011;41509;53.108;6.100;2022-12-07T08:16:25;2.53;;;0.60;;
55641;SDS011;41509;53.108;6.100;2022-12-07T08:18:51;3.03;;;0.70;;
55641;SDS011;41509;53.108;6.100;2022-12-07T08:21:16;6.47;;;0.57;;
55641;SDS011;41509;53.108;6.100;2022-12-07T08:23:42;7.37;;;1.00;;
55641;SDS011;41509;53.108;6.100;2022-12-07T08:26:09;3.57;;;0.90;;
55641;SDS011;41509;53.108;6.100;2022-12-07T08:28:36;4.90;;;1.15;;
55641;SDS011;41509;53.108;6.100;2022-12-07T08:31:03;4.53;;;0.90;;
55641;SDS011;41509;53.108;6.100;2022-12-07T08:33:37;4.43;;;1.20;;
55641;SDS011;41509;53.108;6.100;2022-12-07T08:36:05;6.82;;;1.98;;
55641;SDS011;41509;53.108;6.100;2022-12-07T08:38:36;13.55;;;1.23;;
55641;SDS011;41509;53.108;6.100;2022-12-07T08:41:03;7.18;;;1.00;;
55641;SDS011;41509;53.108;6.100;2022-12-07T08:43:29;6.80;;;1.38;;
55641;SDS011;41509;53.108;6.100;2022-12-07T08:48:30;5.88;;;1.73;;
55641;SDS011;41509;53.108;6.100;2022-12-07T08:50:57;8.05;;;1.88;;
55641;SDS011;41509;53.108;6.100;2022-12-07T08:53:23;8.05;;;1.30;;
55641;SDS011;41509;53.108;6.100;2022-12-07T08:55:49;6.38;;;1.38;;
55641;SDS011;41509;53.108;6.100;2022-12-07T08:58:15;4.38;;;1.20;;
55641;SDS011;41509;53.108;6.100;2022-12-07T09:00:41;3.93;;;0.80;;
55641;SDS011;41509;53.108;6.100;2022-12-07T09:03:06;4.27;;;1.30;;
55641;SDS011;41509;53.108;6.100;2022-12-07T09:05:32;9.27;;;1.20;;
55641;SDS011;41509;53.108;6.100;2022-12-07T09:08:00;4.88;;;0.95;;
55641;SDS011;41509;53.108;6.100;2022-12-07T09:10:27;3.55;;;0.80;;
55641;SDS011;41509;53.108;6.100;2022-12-07T09:12:53;6.18;;;0.70;;
55641;SDS011;41509;53.108;6.100;2022-12-07T09:15:19;5.03;;;0.90;;
55641;SDS011;41509;53.108;6.100;2022-12-07T09:17:44;1.43;;;0.90;;
55641;SDS011;41509;53.108;6.100;2022-12-07T09:20:10;1.70;;;0.53;;
55641;SDS011;41509;53.108;6.100;2022-12-07T09:22:36;5.15;;;0.80;;
55641;SDS011;41509;53.108;6.100;2022-12-07T09:25:03;2.37;;;0.73;;
55641;SDS011;41509;53.108;6.100;2022-12-07T09:27:29;3.80;;;0.77;;
55641;SDS011;41509;53.108;6.100;2022-12-07T09:29:55;4.22;;;0.88;;
55641;SDS011;41509;53.108;6.100;2022-12-07T09:32:21;8.47;;;1.33;;
55641;SDS011;41509;53.108;6.100;2022-12-07T09:34:47;8.25;;;1.33;;
55641;SDS011;41509;53.108;6.100;2022-12-07T09:37:12;3.53;;;0.40;;
55641;SDS011;41509;53.108;6.100;2022-12-07T09:39:38;4.37;;;0.80;;
55641;SDS011;41509;53.108;6.100;2022-12-07T09:42:04;5.82;;;0.70;;
55641;SDS011;41509;53.108;6.100;2022-12-07T09:44:32;2.85;;;0.80;;
55641;SDS011;41509;53.108;6.100;2022-12-07T09:47:00;4.53;;;0.82;;
55641;SDS011;41509;53.108;6.100;2022-12-07T09:49:27;6.32;;;1.25;;
55641;SDS011;41509;53.108;6.100;2022-12-07T09:54:34;3.50;;;1.10;;
55641;SDS011;41509;53.108;6.100;2022-12-07T09:57:03;6.82;;;0.80;;
55641;SDS011;41509;53.108;6.100;2022-12-07T09:59:29;2.90;;;0.57;;
55641;SDS011;41509;53.108;6.100;2022-12-07T10:01:55;1.60;;;0.57;;
55641;SDS011;41509;53.108;6.100;2022-12-07T10:04:21;5.93;;;0.83;;
55641;SDS011;41509;53.108;6.100;2022-12-07T10:06:49;4.55;;;0.88;;
55641;SDS011;41509;53.108;6.100;2022-12-07T10:09:19;6.75;;;0.95;;
55641;SDS011;41509;53.108;6.100;2022-12-07T10:14:28;3.90;;;0.98;;
55641;SDS011;41509;53.108;6.100;2022-12-07T10:16:55;5.90;;;1.02;;
55641;SDS011;41509;53.108;6.100;2022-12-07T10:22:03;3.70;;;0.60;;
55641;SDS011;41509;53.108;6.100;2022-12-07T10:24:29;2.97;;;1.00;;
55641;SDS011;41509;53.108;6.100;2022-12-07T10:26:55;5.72;;;0.85;;
55641;SDS011;41509;53.108;6.100;2022-12-07T10:29:27;3.20;;;0.65;;
55641;SDS011;41509;53.108;6.100;2022-12-07T10:32:01;3.45;;;0.80;;
55641;SDS011;41509;53.108;6.100;2022-12-07T10:34:33;2.13;;;0.60;;
55641;SDS011;41509;53.108;6.100;2022-12-07T10:42:23;5.25;;;1.30;;
55641;SDS011;41509;53.108;6.100;2022-12-07T10:44:50;2.50;;;0.50;;
55641;SDS011;41509;53.108;6.100;2022-12-07T10:47:51;5.10;;;0.50;;
55641;SDS011;41509;53.108;6.100;2022-12-07T10:56:16;5.10;;;0.75;;
55641;SDS011;41509;53.108;6.100;2022-12-07T11:13:28;7.32;;;0.50;;
55641;SDS011;41509;53.108;6.100;2022-12-07T11:26:30;1.95;;;0.55;;
55641;SDS011;41509;53.108;6.100;2022-12-07T11:37:00;1.27;;;0.45;;
55641;SDS011;41509;53.108;6.100;2022-12-07T11:39:33;4.72;;;0.73;;
55641;SDS011;41509;53.108;6.100;2022-12-07T11:42:06;2.35;;;0.80;;
55641;SDS011;41509;53.108;6.100;2022-12-07T11:44:59;6.88;;;0.73;;
55641;SDS011;41509;53.108;6.100;2022-12-07T11:48:08;4.20;;;0.47;;
55641;SDS011;41509;53.108;6.100;2022-12-07T11:51:11;2.05;;;0.50;;
55641;SDS011;41509;53.108;6.100;2022-12-07T11:53:48;2.95;;;0.65;;
55641;SDS011;41509;53.108;6.100;2022-12-07T11:56:20;2.25;;;0.82;;
55641;SDS011;41509;53.108;6.100;2022-12-07T12:03:40;2.67;;;0.60;;
55641;SDS011;41509;53.108;6.100;2022-12-07T12:06:12;1.77;;;0.60;;
55641;SDS011;41509;53.108;6.100;2022-12-07T12:08:55;1.20;;;0.60;;
55641;SDS011;41509;53.108;6.100;2022-12-07T12:19:46;1.50;;;0.40;;
55641;SDS011;41509;53.108;6.100;2022-12-07T12:22:35;1.50;;;0.30;;
55641;SDS011;41509;53.108;6.100;2022-12-07T12:25:06;2.90;;;0.32;;
55641;SDS011;41509;53.108;6.100;2022-12-07T12:27:42;5.28;;;0.55;;
55641;SDS011;41509;53.108;6.100;2022-12-07T12:30:32;1.40;;;0.47;;
55641;SDS011;41509;53.108;6.100;2022-12-07T12:33:04;3.80;;;0.70;;
55641;SDS011;41509;53.108;6.100;2022-12-07T12:54:15;1.85;;;0.35;;
55641;SDS011;41509;53.108;6.100;2022-12-07T12:57:30;5.43;;;0.60;;
55641;SDS011;41509;53.108;6.100;2022-12-07T13:15:39;2.00;;;0.43;;
55641;SDS011;41509;53.108;6.100;2022-12-07T13:26:13;2.92;;;0.50;;
55641;SDS011;41509;53.108;6.100;2022-12-07T13:28:48;3.13;;;0.65;;
55641;SDS011;41509;53.108;6.100;2022-12-07T13:34:04;5.55;;;0.75;;
55641;SDS011;41509;53.108;6.100;2022-12-07T13:36:50;2.53;;;0.85;;
55641;SDS011;41509;53.108;6.100;2022-12-07T13:39:20;5.55;;;0.90;;
55641;SDS011;41509;53.108;6.100;2022-12-07T13:41:51;5.40;;;0.80;;
55641;SDS011;41509;53.108;6.100;2022-12-07T13:44:18;4.40;;;0.93;;
55641;SDS011;41509;53.108;6.100;2022-12-07T13:49:17;2.90;;;1.13;;
55641;SDS011;41509;53.108;6.100;2022-12-07T13:51:46;5.75;;;1.00;;
55641;SDS011;41509;53.108;6.100;2022-12-07T13:54:12;2.35;;;1.02;;
55641;SDS011;41509;53.108;6.100;2022-12-07T13:56:39;5.28;;;1.50;;
55641;SDS011;41509;53.108;6.100;2022-12-07T13:59:05;2.92;;;1.00;;
55641;SDS011;41509;53.108;6.100;2022-12-07T14:01:41;1.67;;;0.37;;
55641;SDS011;41509;53.108;6.100;2022-12-07T14:04:28;2.70;;;0.45;;
55641;SDS011;41509;53.108;6.100;2022-12-07T14:06:56;3.80;;;0.68;;
55641;SDS011;41509;53.108;6.100;2022-12-07T14:09:23;3.17;;;1.30;;
55641;SDS011;41509;53.108;6.100;2022-12-07T14:11:52;3.17;;;0.75;;
55641;SDS011;41509;53.108;6.100;2022-12-07T14:14:22;3.35;;;0.40;;
55641;SDS011;41509;53.108;6.100;2022-12-07T14:16:55;0.85;;;0.40;;
55641;SDS011;41509;53.108;6.100;2022-12-07T14:27:38;2.90;;;0.88;;
55641;SDS011;41509;53.108;6.100;2022-12-07T14:30:04;2.25;;;0.68;;
55641;SDS011;41509;53.108;6.100;2022-12-07T14:32:31;3.83;;;1.33;;
55641;SDS011;41509;53.108;6.100;2022-12-07T14:35:10;4.05;;;1.33;;
55641;SDS011;41509;53.108;6.100;2022-12-07T14:37:37;1.10;;;0.40;;
55641;SDS011;41509;53.108;6.100;2022-12-07T14:40:04;2.13;;;0.43;;
55641;SDS011;41509;53.108;6.100;2022-12-07T14:42:31;2.95;;;1.52;;
55641;SDS011;41509;53.108;6.100;2022-12-07T14:44:59;8.75;;;0.73;;
55641;SDS011;41509;53.108;6.100;2022-12-07T14:47:25;3.63;;;0.60;;
55641;SDS011;41509;53.108;6.100;2022-12-07T14:49:51;6.07;;;0.60;;
55641;SDS011;41509;53.108;6.100;2022-12-07T14:52:19;2.35;;;0.70;;
55641;SDS011;41509;53.108;6.100;2022-12-07T14:54:48;5.00;;;0.68;;
55641;SDS011;41509;53.108;6.100;2022-12-07T14:57:13;2.33;;;0.73;;
55641;SDS011;41509;53.108;6.100;2022-12-07T14:59:39;5.80;;;0.70;;
55641;SDS011;41509;53.108;6.100;2022-12-07T15:02:05;1.00;;;0.67;;
55641;SDS011;41509;53.108;6.100;2022-12-07T15:06:57;1.45;;;0.50;;
55641;SDS011;41509;53.108;6.100;2022-12-07T15:09:28;5.35;;;0.60;;
55641;SDS011;41509;53.108;6.100;2022-12-07T15:11:53;5.20;;;1.03;;
55641;SDS011;41509;53.108;6.100;2022-12-07T15:14:19;1.90;;;0.77;;
55641;SDS011;41509;53.108;6.100;2022-12-07T15:16:45;3.10;;;1.50;;
55641;SDS011;41509;53.108;6.100;2022-12-07T15:19:22;2.40;;;1.03;;
55641;SDS011;41509;53.108;6.100;2022-12-07T15:21:51;3.15;;;1.13;;
55641;SDS011;41509;53.108;6.100;2022-12-07T15:24:17;4.13;;;1.00;;
55641;SDS011;41509;53.108;6.100;2022-12-07T15:26:42;4.03;;;0.80;;
55641;SDS011;41509;53.108;6.100;2022-12-07T15:29:08;1.40;;;0.90;;
55641;SDS011;41509;53.108;6.100;2022-12-07T15:34:00;4.35;;;1.80;;
55641;SDS011;41509;53.108;6.100;2022-12-07T15:36:27;2.05;;;0.77;;
55641;SDS011;41509;53.108;6.100;2022-12-07T15:38:55;3.10;;;1.27;;
55641;SDS011;41509;53.108;6.100;2022-12-07T15:41:21;2.92;;;0.40;;
55641;SDS011;41509;53.108;6.100;2022-12-07T15:43:46;1.57;;;0.63;;
55641;SDS011;41509;53.108;6.100;2022-12-07T15:46:38;1.10;;;0.60;;
55641;SDS011;41509;53.108;6.100;2022-12-07T15:49:10;3.25;;;1.00;;
55641;SDS011;41509;53.108;6.100;2022-12-07T15:51:41;5.85;;;1.00;;
55641;SDS011;41509;53.108;6.100;2022-12-07T15:54:08;4.13;;;0.70;;
55641;SDS011;41509;53.108;6.100;2022-12-07T15:56:47;1.58;;;0.65;;
55641;SDS011;41509;53.108;6.100;2022-12-07T15:59:13;3.22;;;1.02;;
55641;SDS011;41509;53.108;6.100;2022-12-07T16:01:39;4.78;;;1.60;;
55641;SDS011;41509;53.108;6.100;2022-12-07T16:04:05;6.13;;;3.47;;
55641;SDS011;41509;53.108;6.100;2022-12-07T16:06:31;6.00;;;2.80;;
55641;SDS011;41509;53.108;6.100;2022-12-07T16:08:57;9.80;;;3.90;;
55641;SDS011;41509;53.108;6.100;2022-12-07T16:11:22;5.80;;;3.60;;
55641;SDS011;41509;53.108;6.100;2022-12-07T16:13:48;7.70;;;3.17;;
55641;SDS011;41509;53.108;6.100;2022-12-07T16:16:15;6.43;;;2.05;;
55641;SDS011;41509;53.108;6.100;2022-12-07T16:18:43;7.30;;;2.30;;
55641;SDS011;41509;53.108;6.100;2022-12-07T16:21:10;4.47;;;2.08;;
55641;SDS011;41509;53.108;6.100;2022-12-07T16:23:36;6.78;;;2.47;;
55641;SDS011;41509;53.108;6.100;2022-12-07T16:26:08;5.80;;;2.30;;
55641;SDS011;41509;53.108;6.100;2022-12-07T16:28:39;5.53;;;2.00;;
55641;SDS011;41509;53.108;6.100;2022-12-07T16:31:09;4.72;;;2.22;;
55641;SDS011;41509;53.108;6.100;2022-12-07T16:33:37;9.07;;;4.18;;
55641;SDS011;41509;53.108;6.100;2022-12-07T16:36:04;5.97;;;2.83;;
55641;SDS011;41509;53.108;6.100;2022-12-07T16:38:31;3.03;;;1.20;;
55641;SDS011;41509;53.108;6.100;2022-12-07T16:40:57;5.95;;;2.50;;
55641;SDS011;41509;53.108;6.100;2022-12-07T16:43:23;9.23;;;2.33;;
55641;SDS011;41509;53.108;6.100;2022-12-07T16:45:48;6.80;;;2.10;;
55641;SDS011;41509;53.108;6.100;2022-12-07T16:48:14;4.63;;;2.90;;
55641;SDS011;41509;53.108;6.100;2022-12-07T16:50:41;4.97;;;1.80;;
55641;SDS011;41509;53.108;6.100;2022-12-07T16:53:10;7.43;;;1.67;;
55641;SDS011;41509;53.108;6.100;2022-12-07T16:55:37;3.47;;;1.92;;
55641;SDS011;41509;53.108;6.100;2022-12-07T16:58:03;6.28;;;2.40;;
55641;SDS011;41509;53.108;6.100;2022-12-07T17:00:29;4.75;;;2.67;;
55641;SDS011;41509;53.108;6.100;2022-12-07T17:02:58;7.60;;;2.78;;
55641;SDS011;41509;53.108;6.100;2022-12-07T17:05:24;4.70;;;2.50;;
55641;SDS011;41509;53.108;6.100;2022-12-07T17:07:52;8.32;;;3.60;;
55641;SDS011;41509;53.108;6.100;2022-12-07T17:10:17;9.13;;;4.87;;
55641;SDS011;41509;53.108;6.100;2022-12-07T17:12:43;7.20;;;3.63;;
55641;SDS011;41509;53.108;6.100;2022-12-07T17:15:09;10.93;;;5.60;;
55641;SDS011;41509;53.108;6.100;2022-12-07T17:17:51;11.05;;;6.55;;
55641;SDS011;41509;53.108;6.100;2022-12-07T17:20:18;8.90;;;4.32;;
55641;SDS011;41509;53.108;6.100;2022-12-07T17:22:47;4.97;;;2.53;;
55641;SDS011;41509;53.108;6.100;2022-12-07T17:25:13;5.32;;;2.45;;
55641;SDS011;41509;53.108;6.100;2022-12-07T17:27:39;8.47;;;2.50;;
55641;SDS011;41509;53.108;6.100;2022-12-07T17:30:08;4.75;;;2.00;;
55641;SDS011;41509;53.108;6.100;2022-12-07T17:32:34;5.13;;;2.13;;
55641;SDS011;41509;53.108;6.100;2022-12-07T17:34:59;8.37;;;3.13;;
55641;SDS011;41509;53.108;6.100;2022-12-07T17:37:25;5.32;;;2.63;;
55641;SDS011;41509;53.108;6.100;2022-12-07T17:39:51;4.43;;;1.63;;
55641;SDS011;41509;53.108;6.100;2022-12-07T17:42:18;7.82;;;1.35;;
55641;SDS011;41509;53.108;6.100;2022-12-07T17:45:04;4.68;;;1.55;;
55641;SDS011;41509;53.108;6.100;2022-12-07T17:47:35;4.30;;;1.95;;
55641;SDS011;41509;53.108;6.100;2022-12-07T17:50:02;6.70;;;1.80;;